Dawson, Alabama
Current Conditions -  °F | °C
As of 1:35 PM on Thursday 30 Oct 2014 (Local Time) from K4A9 Reporting Station
Clear Clear  
Wind Chill: 63°   Ceiling: Unl
Heat Index: 63°   Visibility: 10mi
Dew Point: 32°   Wind: 6mph
Humidity: 32%   Direction: 360°N
Pressure: 30.03"   Gusts: NA
Location:  34.3°N, 85.93°W
Report Text: K4A9 301835Z AUTO 36005KT 10SM CLR 17/00 A3003 RMK AO2
Loading
Personal Weather Stations






























Interactive Weather Map
Tropical Storm Tracking
New forecast layout! Learn more

10-Day Weather Forecast

Advertisements
Track Severe Weather on mobile